sensor_id;sensor_type;location;lat;lon;timestamp;P1;durP1;ratioP1;P2;durP2;ratioP2
54919;SDS011;63804;53.120;8.764;2022-10-16T00:01:51;6.03;;;1.73;;
54919;SDS011;63804;53.120;8.764;2022-10-16T00:04:17;5.28;;;2.03;;
54919;SDS011;63804;53.120;8.764;2022-10-16T00:06:42;6.25;;;1.80;;
54919;SDS011;63804;53.120;8.764;2022-10-16T00:09:08;16.02;;;2.35;;
54919;SDS011;63804;53.120;8.764;2022-10-16T00:11:34;6.22;;;1.73;;
54919;SDS011;63804;53.120;8.764;2022-10-16T00:14:05;4.35;;;1.63;;
54919;SDS011;63804;53.120;8.764;2022-10-16T00:16:33;5.85;;;1.70;;
54919;SDS011;63804;53.120;8.764;2022-10-16T00:18:59;4.15;;;1.73;;
54919;SDS011;63804;53.120;8.764;2022-10-16T00:21:26;7.38;;;1.60;;
54919;SDS011;63804;53.120;8.764;2022-10-16T00:23:53;5.60;;;1.60;;
54919;SDS011;63804;53.120;8.764;2022-10-16T00:26:27;3.97;;;1.77;;
54919;SDS011;63804;53.120;8.764;2022-10-16T00:28:55;3.55;;;1.40;;
54919;SDS011;63804;53.120;8.764;2022-10-16T00:31:21;3.47;;;1.35;;
54919;SDS011;63804;53.120;8.764;2022-10-16T00:33:48;3.70;;;1.42;;
54919;SDS011;63804;53.120;8.764;2022-10-16T00:36:15;5.65;;;1.63;;
54919;SDS011;63804;53.120;8.764;2022-10-16T00:38:43;3.70;;;1.48;;
54919;SDS011;63804;53.120;8.764;2022-10-16T00:41:11;6.30;;;1.90;;
54919;SDS011;63804;53.120;8.764;2022-10-16T00:43:42;6.07;;;1.75;;
54919;SDS011;63804;53.120;8.764;2022-10-16T00:48:38;4.47;;;1.58;;
54919;SDS011;63804;53.120;8.764;2022-10-16T00:51:04;5.40;;;1.55;;
54919;SDS011;63804;53.120;8.764;2022-10-16T00:53:32;3.95;;;1.48;;
54919;SDS011;63804;53.120;8.764;2022-10-16T00:55:59;4.85;;;1.42;;
54919;SDS011;63804;53.120;8.764;2022-10-16T00:58:24;5.38;;;1.58;;
54919;SDS011;63804;53.120;8.764;2022-10-16T01:00:50;3.60;;;1.50;;
54919;SDS011;63804;53.120;8.764;2022-10-16T01:06:15;5.53;;;1.75;;
54919;SDS011;63804;53.120;8.764;2022-10-16T01:19:44;4.43;;;1.75;;
54919;SDS011;63804;53.120;8.764;2022-10-16T01:22:25;5.20;;;1.70;;
54919;SDS011;63804;53.120;8.764;2022-10-16T01:25:02;5.43;;;1.73;;
54919;SDS011;63804;53.120;8.764;2022-10-16T01:27:34;6.18;;;1.77;;
54919;SDS011;63804;53.120;8.764;2022-10-16T01:30:25;5.00;;;1.70;;
54919;SDS011;63804;53.120;8.764;2022-10-16T01:32:59;4.95;;;1.80;;
54919;SDS011;63804;53.120;8.764;2022-10-16T01:35:48;6.60;;;1.77;;
54919;SDS011;63804;53.120;8.764;2022-10-16T01:38:26;4.43;;;1.77;;
54919;SDS011;63804;53.120;8.764;2022-10-16T01:41:00;6.57;;;1.77;;
54919;SDS011;63804;53.120;8.764;2022-10-16T01:43:39;4.97;;;1.80;;
54919;SDS011;63804;53.120;8.764;2022-10-16T01:46:09;4.50;;;1.73;;
54919;SDS011;63804;53.120;8.764;2022-10-16T01:48:36;6.60;;;1.70;;
54919;SDS011;63804;53.120;8.764;2022-10-16T01:51:06;5.20;;;1.65;;
54919;SDS011;63804;53.120;8.764;2022-10-16T01:53:36;4.53;;;2.10;;
54919;SDS011;63804;53.120;8.764;2022-10-16T01:56:03;5.57;;;1.70;;
54919;SDS011;63804;53.120;8.764;2022-10-16T01:58:33;6.68;;;1.88;;
54919;SDS011;63804;53.120;8.764;2022-10-16T02:01:03;4.57;;;1.70;;
54919;SDS011;63804;53.120;8.764;2022-10-16T02:03:32;5.18;;;1.90;;
54919;SDS011;63804;53.120;8.764;2022-10-16T02:06:02;3.75;;;1.60;;
54919;SDS011;63804;53.120;8.764;2022-10-16T02:08:28;5.57;;;1.92;;
54919;SDS011;63804;53.120;8.764;2022-10-16T02:10:56;7.53;;;2.03;;
54919;SDS011;63804;53.120;8.764;2022-10-16T02:13:27;4.93;;;1.60;;
54919;SDS011;63804;53.120;8.764;2022-10-16T02:16:02;6.40;;;1.73;;
54919;SDS011;63804;53.120;8.764;2022-10-16T02:18:28;6.07;;;1.48;;
54919;SDS011;63804;53.120;8.764;2022-10-16T02:20:57;5.60;;;1.95;;
54919;SDS011;63804;53.120;8.764;2022-10-16T02:23:29;6.97;;;1.80;;
54919;SDS011;63804;53.120;8.764;2022-10-16T02:26:03;6.20;;;2.20;;
54919;SDS011;63804;53.120;8.764;2022-10-16T02:28:54;5.82;;;1.67;;
54919;SDS011;63804;53.120;8.764;2022-10-16T02:31:22;5.35;;;1.65;;
54919;SDS011;63804;53.120;8.764;2022-10-16T02:33:52;7.00;;;1.75;;
54919;SDS011;63804;53.120;8.764;2022-10-16T02:36:21;10.15;;;2.00;;
54919;SDS011;63804;53.120;8.764;2022-10-16T02:38:47;8.00;;;1.90;;
54919;SDS011;63804;53.120;8.764;2022-10-16T02:41:13;5.05;;;2.10;;
54919;SDS011;63804;53.120;8.764;2022-10-16T02:43:39;5.07;;;1.70;;
54919;SDS011;63804;53.120;8.764;2022-10-16T02:46:04;7.00;;;1.73;;
54919;SDS011;63804;53.120;8.764;2022-10-16T02:48:30;3.75;;;1.60;;
54919;SDS011;63804;53.120;8.764;2022-10-16T02:50:56;7.90;;;1.98;;
54919;SDS011;63804;53.120;8.764;2022-10-16T02:53:22;4.43;;;1.85;;
54919;SDS011;63804;53.120;8.764;2022-10-16T02:55:47;9.52;;;2.17;;
54919;SDS011;63804;53.120;8.764;2022-10-16T02:58:13;3.40;;;1.60;;
54919;SDS011;63804;53.120;8.764;2022-10-16T03:00:39;4.38;;;1.98;;
54919;SDS011;63804;53.120;8.764;2022-10-16T03:03:04;5.88;;;2.05;;
54919;SDS011;63804;53.120;8.764;2022-10-16T03:05:30;5.82;;;1.90;;
54919;SDS011;63804;53.120;8.764;2022-10-16T03:07:55;6.75;;;2.15;;
54919;SDS011;63804;53.120;8.764;2022-10-16T03:10:21;5.00;;;1.80;;
54919;SDS011;63804;53.120;8.764;2022-10-16T03:12:46;9.52;;;2.25;;
54919;SDS011;63804;53.120;8.764;2022-10-16T03:15:12;7.25;;;2.08;;
54919;SDS011;63804;53.120;8.764;2022-10-16T03:17:37;5.80;;;2.20;;
54919;SDS011;63804;53.120;8.764;2022-10-16T03:20:03;5.13;;;1.98;;
54919;SDS011;63804;53.120;8.764;2022-10-16T03:22:29;8.32;;;1.65;;
54919;SDS011;63804;53.120;8.764;2022-10-16T03:24:54;10.68;;;2.50;;
54919;SDS011;63804;53.120;8.764;2022-10-16T03:27:20;5.47;;;2.00;;
54919;SDS011;63804;53.120;8.764;2022-10-16T03:29:45;5.50;;;1.85;;
54919;SDS011;63804;53.120;8.764;2022-10-16T03:32:11;8.50;;;2.20;;
54919;SDS011;63804;53.120;8.764;2022-10-16T03:34:36;8.85;;;2.58;;
54919;SDS011;63804;53.120;8.764;2022-10-16T03:37:02;7.90;;;2.08;;
54919;SDS011;63804;53.120;8.764;2022-10-16T03:39:27;5.82;;;2.08;;
54919;SDS011;63804;53.120;8.764;2022-10-16T03:41:53;7.85;;;1.80;;
54919;SDS011;63804;53.120;8.764;2022-10-16T03:44:18;12.93;;;1.90;;
54919;SDS011;63804;53.120;8.764;2022-10-16T03:46:44;6.88;;;2.22;;
54919;SDS011;63804;53.120;8.764;2022-10-16T03:49:10;6.13;;;2.50;;
54919;SDS011;63804;53.120;8.764;2022-10-16T03:51:35;6.75;;;2.42;;
54919;SDS011;63804;53.120;8.764;2022-10-16T03:54:01;9.20;;;2.88;;
54919;SDS011;63804;53.120;8.764;2022-10-16T03:56:26;8.32;;;2.30;;
54919;SDS011;63804;53.120;8.764;2022-10-16T03:58:52;6.75;;;2.65;;
54919;SDS011;63804;53.120;8.764;2022-10-16T04:01:17;8.13;;;2.85;;
54919;SDS011;63804;53.120;8.764;2022-10-16T04:03:43;8.57;;;2.92;;
54919;SDS011;63804;53.120;8.764;2022-10-16T04:06:08;9.27;;;3.15;;
54919;SDS011;63804;53.120;8.764;2022-10-16T04:08:34;6.65;;;2.72;;
54919;SDS011;63804;53.120;8.764;2022-10-16T04:11:02;7.97;;;3.22;;
54919;SDS011;63804;53.120;8.764;2022-10-16T04:13:28;8.75;;;3.20;;
54919;SDS011;63804;53.120;8.764;2022-10-16T04:15:53;9.48;;;3.05;;
54919;SDS011;63804;53.120;8.764;2022-10-16T04:18:19;8.70;;;3.42;;
54919;SDS011;63804;53.120;8.764;2022-10-16T04:20:45;8.77;;;3.55;;
54919;SDS011;63804;53.120;8.764;2022-10-16T04:23:10;10.65;;;3.53;;
54919;SDS011;63804;53.120;8.764;2022-10-16T04:25:36;9.02;;;3.78;;
54919;SDS011;63804;53.120;8.764;2022-10-16T04:28:01;10.75;;;4.40;;
54919;SDS011;63804;53.120;8.764;2022-10-16T04:30:27;9.30;;;4.10;;
54919;SDS011;63804;53.120;8.764;2022-10-16T04:32:52;12.60;;;4.63;;
54919;SDS011;63804;53.120;8.764;2022-10-16T04:35:19;9.77;;;4.63;;
54919;SDS011;63804;53.120;8.764;2022-10-16T04:37:46;11.38;;;4.93;;
54919;SDS011;63804;53.120;8.764;2022-10-16T04:40:12;12.80;;;5.32;;
54919;SDS011;63804;53.120;8.764;2022-10-16T04:42:38;12.13;;;5.30;;
54919;SDS011;63804;53.120;8.764;2022-10-16T04:45:04;14.23;;;5.40;;
54919;SDS011;63804;53.120;8.764;2022-10-16T04:47:30;13.82;;;5.43;;
54919;SDS011;63804;53.120;8.764;2022-10-16T04:49:56;10.55;;;5.30;;
54919;SDS011;63804;53.120;8.764;2022-10-16T04:52:22;12.80;;;6.05;;
54919;SDS011;63804;53.120;8.764;2022-10-16T04:54:49;10.25;;;5.47;;
54919;SDS011;63804;53.120;8.764;2022-10-16T04:57:16;12.20;;;5.80;;
54919;SDS011;63804;53.120;8.764;2022-10-16T04:59:42;13.63;;;5.85;;
54919;SDS011;63804;53.120;8.764;2022-10-16T05:02:07;13.80;;;5.80;;
54919;SDS011;63804;53.120;8.764;2022-10-16T05:04:33;12.82;;;5.88;;
54919;SDS011;63804;53.120;8.764;2022-10-16T05:06:58;13.18;;;5.93;;
54919;SDS011;63804;53.120;8.764;2022-10-16T05:09:24;11.88;;;5.90;;
54919;SDS011;63804;53.120;8.764;2022-10-16T05:11:49;11.93;;;5.70;;
54919;SDS011;63804;53.120;8.764;2022-10-16T05:14:15;16.02;;;6.60;;
54919;SDS011;63804;53.120;8.764;2022-10-16T05:16:40;14.25;;;6.72;;
54919;SDS011;63804;53.120;8.764;2022-10-16T05:19:06;14.32;;;6.57;;
54919;SDS011;63804;53.120;8.764;2022-10-16T05:21:32;18.27;;;6.63;;
54919;SDS011;63804;53.120;8.764;2022-10-16T05:23:57;13.07;;;6.50;;
54919;SDS011;63804;53.120;8.764;2022-10-16T05:26:23;13.65;;;6.90;;
54919;SDS011;63804;53.120;8.764;2022-10-16T05:28:49;14.80;;;6.70;;
54919;SDS011;63804;53.120;8.764;2022-10-16T05:31:15;14.00;;;7.20;;
54919;SDS011;63804;53.120;8.764;2022-10-16T05:33:40;13.70;;;6.38;;
54919;SDS011;63804;53.120;8.764;2022-10-16T05:36:07;17.42;;;7.43;;
54919;SDS011;63804;53.120;8.764;2022-10-16T05:38:37;15.30;;;7.57;;
54919;SDS011;63804;53.120;8.764;2022-10-16T05:41:03;15.23;;;6.68;;
54919;SDS011;63804;53.120;8.764;2022-10-16T05:43:30;14.75;;;7.00;;
54919;SDS011;63804;53.120;8.764;2022-10-16T05:46:05;15.95;;;7.50;;
54919;SDS011;63804;53.120;8.764;2022-10-16T05:48:31;13.52;;;7.55;;
54919;SDS011;63804;53.120;8.764;2022-10-16T05:50:58;15.32;;;7.20;;
54919;SDS011;63804;53.120;8.764;2022-10-16T05:53:29;14.30;;;7.47;;
54919;SDS011;63804;53.120;8.764;2022-10-16T05:55:56;13.85;;;7.65;;
54919;SDS011;63804;53.120;8.764;2022-10-16T05:58:23;13.43;;;7.10;;
54919;SDS011;63804;53.120;8.764;2022-10-16T06:00:52;14.70;;;7.50;;
54919;SDS011;63804;53.120;8.764;2022-10-16T06:03:19;13.93;;;7.22;;
54919;SDS011;63804;53.120;8.764;2022-10-16T06:05:45;15.90;;;6.75;;
54919;SDS011;63804;53.120;8.764;2022-10-16T06:08:10;17.25;;;7.90;;
54919;SDS011;63804;53.120;8.764;2022-10-16T06:10:36;12.50;;;7.30;;
54919;SDS011;63804;53.120;8.764;2022-10-16T06:13:01;14.35;;;7.50;;
54919;SDS011;63804;53.120;8.764;2022-10-16T06:15:27;13.43;;;6.90;;
54919;SDS011;63804;53.120;8.764;2022-10-16T06:17:52;13.38;;;7.47;;
54919;SDS011;63804;53.120;8.764;2022-10-16T06:20:18;15.02;;;7.35;;
54919;SDS011;63804;53.120;8.764;2022-10-16T06:22:43;15.68;;;7.03;;
54919;SDS011;63804;53.120;8.764;2022-10-16T06:25:09;13.30;;;7.20;;
54919;SDS011;63804;53.120;8.764;2022-10-16T06:27:34;15.93;;;7.10;;
54919;SDS011;63804;53.120;8.764;2022-10-16T06:30:00;16.08;;;7.68;;
54919;SDS011;63804;53.120;8.764;2022-10-16T06:32:25;18.52;;;7.13;;
54919;SDS011;63804;53.120;8.764;2022-10-16T06:34:52;14.10;;;7.30;;
54919;SDS011;63804;53.120;8.764;2022-10-16T06:37:18;14.70;;;7.20;;
54919;SDS011;63804;53.120;8.764;2022-10-16T06:39:43;14.43;;;7.30;;
54919;SDS011;63804;53.120;8.764;2022-10-16T06:42:09;14.55;;;7.25;;
54919;SDS011;63804;53.120;8.764;2022-10-16T06:44:34;15.18;;;7.25;;
54919;SDS011;63804;53.120;8.764;2022-10-16T06:47:00;11.95;;;7.13;;
54919;SDS011;63804;53.120;8.764;2022-10-16T06:49:25;15.88;;;7.05;;
54919;SDS011;63804;53.120;8.764;2022-10-16T06:51:51;16.50;;;7.13;;
54919;SDS011;63804;53.120;8.764;2022-10-16T06:54:16;13.93;;;6.68;;
54919;SDS011;63804;53.120;8.764;2022-10-16T06:56:43;15.50;;;6.78;;
54919;SDS011;63804;53.120;8.764;2022-10-16T06:59:08;12.63;;;6.75;;
54919;SDS011;63804;53.120;8.764;2022-10-16T07:01:34;15.77;;;7.75;;
54919;SDS011;63804;53.120;8.764;2022-10-16T07:04:00;12.73;;;6.82;;
54919;SDS011;63804;53.120;8.764;2022-10-16T07:06:26;14.70;;;6.90;;
54919;SDS011;63804;53.120;8.764;2022-10-16T07:08:52;15.88;;;7.03;;
54919;SDS011;63804;53.120;8.764;2022-10-16T07:11:19;14.63;;;6.65;;
54919;SDS011;63804;53.120;8.764;2022-10-16T07:13:46;12.18;;;6.18;;
54919;SDS011;63804;53.120;8.764;2022-10-16T07:16:14;13.60;;;6.22;;
54919;SDS011;63804;53.120;8.764;2022-10-16T07:18:42;13.27;;;6.28;;
54919;SDS011;63804;53.120;8.764;2022-10-16T07:21:14;13.70;;;6.35;;
54919;SDS011;63804;53.120;8.764;2022-10-16T07:23:42;12.10;;;6.22;;
54919;SDS011;63804;53.120;8.764;2022-10-16T07:26:08;12.07;;;6.00;;
54919;SDS011;63804;53.120;8.764;2022-10-16T07:28:35;14.27;;;6.28;;
54919;SDS011;63804;53.120;8.764;2022-10-16T07:31:05;12.88;;;6.05;;
54919;SDS011;63804;53.120;8.764;2022-10-16T07:33:33;15.40;;;6.00;;
54919;SDS011;63804;53.120;8.764;2022-10-16T07:36:00;12.27;;;6.03;;
54919;SDS011;63804;53.120;8.764;2022-10-16T07:38:25;12.88;;;6.25;;
54919;SDS011;63804;53.120;8.764;2022-10-16T07:41:01;10.45;;;5.28;;
54919;SDS011;63804;53.120;8.764;2022-10-16T07:43:29;11.45;;;5.75;;
54919;SDS011;63804;53.120;8.764;2022-10-16T07:45:55;12.52;;;5.72;;
54919;SDS011;63804;53.120;8.764;2022-10-16T07:48:21;9.77;;;5.15;;
54919;SDS011;63804;53.120;8.764;2022-10-16T07:50:47;9.57;;;4.97;;
54919;SDS011;63804;53.120;8.764;2022-10-16T07:53:13;10.25;;;4.85;;
54919;SDS011;63804;53.120;8.764;2022-10-16T07:55:39;12.13;;;5.13;;
54919;SDS011;63804;53.120;8.764;2022-10-16T07:58:05;12.15;;;5.10;;
54919;SDS011;63804;53.120;8.764;2022-10-16T08:00:31;9.23;;;4.80;;
54919;SDS011;63804;53.120;8.764;2022-10-16T08:02:58;9.98;;;4.63;;
54919;SDS011;63804;53.120;8.764;2022-10-16T08:05:30;8.60;;;4.35;;
54919;SDS011;63804;53.120;8.764;2022-10-16T08:07:57;10.48;;;4.50;;
54919;SDS011;63804;53.120;8.764;2022-10-16T08:10:23;11.15;;;4.32;;
54919;SDS011;63804;53.120;8.764;2022-10-16T08:12:50;11.35;;;4.40;;
54919;SDS011;63804;53.120;8.764;2022-10-16T08:15:16;8.88;;;4.28;;
54919;SDS011;63804;53.120;8.764;2022-10-16T08:17:42;8.65;;;4.38;;
54919;SDS011;63804;53.120;8.764;2022-10-16T08:20:08;12.35;;;4.10;;
54919;SDS011;63804;53.120;8.764;2022-10-16T08:22:35;6.47;;;3.53;;
54919;SDS011;63804;53.120;8.764;2022-10-16T08:25:00;9.50;;;3.67;;
54919;SDS011;63804;53.120;8.764;2022-10-16T08:27:30;7.63;;;3.95;;
54919;SDS011;63804;53.120;8.764;2022-10-16T08:29:57;9.43;;;3.40;;
54919;SDS011;63804;53.120;8.764;2022-10-16T08:32:22;9.57;;;4.03;;
54919;SDS011;63804;53.120;8.764;2022-10-16T08:34:48;6.53;;;3.72;;
54919;SDS011;63804;53.120;8.764;2022-10-16T08:37:13;10.10;;;3.28;;
54919;SDS011;63804;53.120;8.764;2022-10-16T08:39:39;9.77;;;3.58;;
54919;SDS011;63804;53.120;8.764;2022-10-16T08:42:39;11.65;;;3.25;;
54919;SDS011;63804;53.120;8.764;2022-10-16T08:48:29;8.70;;;3.20;;
54919;SDS011;63804;53.120;8.764;2022-10-16T08:51:13;8.55;;;2.70;;
54919;SDS011;63804;53.120;8.764;2022-10-16T08:56:20;6.72;;;2.92;;
54919;SDS011;63804;53.120;8.764;2022-10-16T08:58:53;7.33;;;2.83;;
54919;SDS011;63804;53.120;8.764;2022-10-16T09:01:20;7.15;;;2.88;;
54919;SDS011;63804;53.120;8.764;2022-10-16T09:14:23;7.45;;;2.17;;
54919;SDS011;63804;53.120;8.764;2022-10-16T09:17:00;9.68;;;2.70;;
54919;SDS011;63804;53.120;8.764;2022-10-16T09:19:34;8.10;;;1.90;;
54919;SDS011;63804;53.120;8.764;2022-10-16T09:22:10;11.05;;;2.50;;
54919;SDS011;63804;53.120;8.764;2022-10-16T09:24:41;8.23;;;2.10;;
54919;SDS011;63804;53.120;8.764;2022-10-16T09:27:11;6.32;;;1.85;;
54919;SDS011;63804;53.120;8.764;2022-10-16T09:29:39;12.00;;;2.78;;
54919;SDS011;63804;53.120;8.764;2022-10-16T09:32:15;10.13;;;2.17;;
54919;SDS011;63804;53.120;8.764;2022-10-16T09:34:52;8.10;;;2.00;;
54919;SDS011;63804;53.120;8.764;2022-10-16T09:37:22;7.00;;;2.13;;
54919;SDS011;63804;53.120;8.764;2022-10-16T09:39:50;10.70;;;2.25;;
54919;SDS011;63804;53.120;8.764;2022-10-16T09:42:21;8.82;;;1.98;;
54919;SDS011;63804;53.120;8.764;2022-10-16T09:44:53;7.13;;;1.58;;
54919;SDS011;63804;53.120;8.764;2022-10-16T09:47:28;7.10;;;1.70;;
54919;SDS011;63804;53.120;8.764;2022-10-16T09:49:59;5.47;;;1.80;;
54919;SDS011;63804;53.120;8.764;2022-10-16T09:52:30;5.20;;;1.95;;
54919;SDS011;63804;53.120;8.764;2022-10-16T09:55:00;6.95;;;1.77;;
54919;SDS011;63804;53.120;8.764;2022-10-16T09:57:37;6.85;;;1.70;;
54919;SDS011;63804;53.120;8.764;2022-10-16T10:00:15;6.90;;;1.60;;
54919;SDS011;63804;53.120;8.764;2022-10-16T10:02:43;8.05;;;1.50;;
54919;SDS011;63804;53.120;8.764;2022-10-16T10:05:19;5.53;;;1.40;;
54919;SDS011;63804;53.120;8.764;2022-10-16T10:07:52;7.70;;;1.80;;
54919;SDS011;63804;53.120;8.764;2022-10-16T10:10:30;8.57;;;1.77;;
54919;SDS011;63804;53.120;8.764;2022-10-16T10:12:57;6.53;;;1.48;;
54919;SDS011;63804;53.120;8.764;2022-10-16T10:15:23;7.50;;;1.98;;
54919;SDS011;63804;53.120;8.764;2022-10-16T10:17:52;7.28;;;1.67;;
54919;SDS011;63804;53.120;8.764;2022-10-16T10:22:58;5.82;;;1.70;;
54919;SDS011;63804;53.120;8.764;2022-10-16T10:38:51;5.43;;;1.50;;
54919;SDS011;63804;53.120;8.764;2022-10-16T10:44:13;6.22;;;1.30;;
54919;SDS011;63804;53.120;8.764;2022-10-16T10:55:09;5.68;;;1.73;;
54919;SDS011;63804;53.120;8.764;2022-10-16T10:58:01;11.50;;;1.98;;
54919;SDS011;63804;53.120;8.764;2022-10-16T11:03:20;3.17;;;1.20;;
54919;SDS011;63804;53.120;8.764;2022-10-16T11:06:12;6.85;;;1.00;;
54919;SDS011;63804;53.120;8.764;2022-10-16T11:08:50;6.10;;;1.38;;
54919;SDS011;63804;53.120;8.764;2022-10-16T11:14:26;6.10;;;1.10;;
54919;SDS011;63804;53.120;8.764;2022-10-16T11:17:19;6.18;;;1.30;;
54919;SDS011;63804;53.120;8.764;2022-10-16T11:22:38;4.40;;;1.38;;
54919;SDS011;63804;53.120;8.764;2022-10-16T11:35:45;5.22;;;1.10;;
54919;SDS011;63804;53.120;8.764;2022-10-16T11:38:21;7.18;;;1.50;;
54919;SDS011;63804;53.120;8.764;2022-10-16T11:40:54;8.07;;;1.50;;
54919;SDS011;63804;53.120;8.764;2022-10-16T11:43:29;8.63;;;1.30;;
54919;SDS011;63804;53.120;8.764;2022-10-16T11:46:04;6.35;;;1.10;;
54919;SDS011;63804;53.120;8.764;2022-10-16T11:56:50;8.40;;;1.55;;
54919;SDS011;63804;53.120;8.764;2022-10-16T11:59:27;7.22;;;1.52;;
54919;SDS011;63804;53.120;8.764;2022-10-16T12:05:15;8.63;;;1.58;;
54919;SDS011;63804;53.120;8.764;2022-10-16T12:10:20;6.50;;;1.15;;
54919;SDS011;63804;53.120;8.764;2022-10-16T12:12:48;6.07;;;1.48;;
54919;SDS011;63804;53.120;8.764;2022-10-16T12:17:48;4.25;;;1.30;;
54919;SDS011;63804;53.120;8.764;2022-10-16T12:20:19;9.90;;;1.50;;
54919;SDS011;63804;53.120;8.764;2022-10-16T12:22:51;5.57;;;1.27;;
54919;SDS011;63804;53.120;8.764;2022-10-16T12:25:24;6.57;;;1.23;;
54919;SDS011;63804;53.120;8.764;2022-10-16T12:27:57;5.90;;;1.30;;
54919;SDS011;63804;53.120;8.764;2022-10-16T12:30:24;8.07;;;1.45;;
54919;SDS011;63804;53.120;8.764;2022-10-16T12:32:58;7.95;;;1.35;;
54919;SDS011;63804;53.120;8.764;2022-10-16T12:35:34;8.00;;;1.88;;
54919;SDS011;63804;53.120;8.764;2022-10-16T12:38:16;5.07;;;1.05;;
54919;SDS011;63804;53.120;8.764;2022-10-16T12:40:54;7.28;;;1.30;;
54919;SDS011;63804;53.120;8.764;2022-10-16T12:43:37;7.70;;;1.17;;
54919;SDS011;63804;53.120;8.764;2022-10-16T12:48:33;9.77;;;1.13;;
54919;SDS011;63804;53.120;8.764;2022-10-16T12:53:44;5.00;;;1.40;;
54919;SDS011;63804;53.120;8.764;2022-10-16T12:56:19;6.07;;;1.23;;
54919;SDS011;63804;53.120;8.764;2022-10-16T13:10:14;5.38;;;1.05;;
54919;SDS011;63804;53.120;8.764;2022-10-16T13:16:06;7.80;;;1.20;;
54919;SDS011;63804;53.120;8.764;2022-10-16T13:29:39;10.35;;;2.00;;
54919;SDS011;63804;53.120;8.764;2022-10-16T13:32:07;7.43;;;1.45;;
54919;SDS011;63804;53.120;8.764;2022-10-16T13:34:46;6.80;;;1.42;;
54919;SDS011;63804;53.120;8.764;2022-10-16T13:37:21;4.88;;;1.35;;
54919;SDS011;63804;53.120;8.764;2022-10-16T13:39:48;5.13;;;1.02;;
54919;SDS011;63804;53.120;8.764;2022-10-16T13:42:25;8.55;;;1.50;;
54919;SDS011;63804;53.120;8.764;2022-10-16T13:44:53;9.93;;;1.40;;
54919;SDS011;63804;53.120;8.764;2022-10-16T13:47:22;7.72;;;1.20;;
54919;SDS011;63804;53.120;8.764;2022-10-16T13:52:51;8.20;;;1.40;;
54919;SDS011;63804;53.120;8.764;2022-10-16T13:55:17;8.07;;;1.70;;
54919;SDS011;63804;53.120;8.764;2022-10-16T13:57:43;9.48;;;1.50;;
54919;SDS011;63804;53.120;8.764;2022-10-16T14:00:23;6.07;;;1.77;;
54919;SDS011;63804;53.120;8.764;2022-10-16T14:02:52;5.25;;;1.20;;
54919;SDS011;63804;53.120;8.764;2022-10-16T14:05:22;8.80;;;1.50;;
54919;SDS011;63804;53.120;8.764;2022-10-16T14:07:49;7.60;;;1.45;;
54919;SDS011;63804;53.120;8.764;2022-10-16T14:10:21;6.75;;;1.65;;
54919;SDS011;63804;53.120;8.764;2022-10-16T14:15:19;7.90;;;2.20;;
54919;SDS011;63804;53.120;8.764;2022-10-16T14:17:45;6.65;;;1.67;;
54919;SDS011;63804;53.120;8.764;2022-10-16T14:20:15;6.75;;;1.70;;
54919;SDS011;63804;53.120;8.764;2022-10-16T14:22:41;11.80;;;1.83;;
54919;SDS011;63804;53.120;8.764;2022-10-16T14:25:19;6.95;;;1.33;;
54919;SDS011;63804;53.120;8.764;2022-10-16T14:27:59;9.82;;;1.50;;
54919;SDS011;63804;53.120;8.764;2022-10-16T14:30:31;7.65;;;1.60;;
54919;SDS011;63804;53.120;8.764;2022-10-16T14:32:59;6.50;;;1.50;;
54919;SDS011;63804;53.120;8.764;2022-10-16T14:35:33;8.30;;;1.88;;
54919;SDS011;63804;53.120;8.764;2022-10-16T14:38:02;8.52;;;1.58;;
54919;SDS011;63804;53.120;8.764;2022-10-16T14:40:30;8.57;;;1.42;;
54919;SDS011;63804;53.120;8.764;2022-10-16T14:42:58;9.77;;;1.77;;
54919;SDS011;63804;53.120;8.764;2022-10-16T14:45:30;6.47;;;1.40;;
54919;SDS011;63804;53.120;8.764;2022-10-16T14:48:02;6.68;;;1.35;;
54919;SDS011;63804;53.120;8.764;2022-10-16T14:50:31;8.50;;;1.67;;
54919;SDS011;63804;53.120;8.764;2022-10-16T14:52:58;7.65;;;1.65;;
54919;SDS011;63804;53.120;8.764;2022-10-16T14:55:23;5.75;;;1.13;;
54919;SDS011;63804;53.120;8.764;2022-10-16T14:57:50;8.48;;;1.63;;
54919;SDS011;63804;53.120;8.764;2022-10-16T15:02:44;8.00;;;1.55;;
54919;SDS011;63804;53.120;8.764;2022-10-16T15:07:43;5.95;;;1.45;;
54919;SDS011;63804;53.120;8.764;2022-10-16T15:10:10;7.30;;;1.60;;
54919;SDS011;63804;53.120;8.764;2022-10-16T15:12:36;6.45;;;1.30;;
54919;SDS011;63804;53.120;8.764;2022-10-16T15:15:01;6.05;;;1.60;;
54919;SDS011;63804;53.120;8.764;2022-10-16T15:17:27;6.85;;;1.63;;
54919;SDS011;63804;53.120;8.764;2022-10-16T15:19:53;12.35;;;1.70;;
54919;SDS011;63804;53.120;8.764;2022-10-16T15:22:18;7.75;;;1.90;;
54919;SDS011;63804;53.120;8.764;2022-10-16T15:24:44;7.13;;;1.63;;
54919;SDS011;63804;53.120;8.764;2022-10-16T15:27:09;5.50;;;1.33;;
54919;SDS011;63804;53.120;8.764;2022-10-16T15:29:35;6.25;;;1.50;;
54919;SDS011;63804;53.120;8.764;2022-10-16T15:32:00;8.00;;;1.55;;
54919;SDS011;63804;53.120;8.764;2022-10-16T15:34:26;6.65;;;1.60;;
54919;SDS011;63804;53.120;8.764;2022-10-16T15:36:52;6.10;;;1.70;;
54919;SDS011;63804;53.120;8.764;2022-10-16T15:39:18;8.80;;;1.45;;
54919;SDS011;63804;53.120;8.764;2022-10-16T15:41:47;10.93;;;1.60;;
54919;SDS011;63804;53.120;8.764;2022-10-16T15:44:19;10.13;;;1.42;;
54919;SDS011;63804;53.120;8.764;2022-10-16T15:46:47;5.32;;;1.50;;
54919;SDS011;63804;53.120;8.764;2022-10-16T15:49:13;7.70;;;1.20;;
54919;SDS011;63804;53.120;8.764;2022-10-16T15:51:40;7.93;;;1.60;;
54919;SDS011;63804;53.120;8.764;2022-10-16T15:54:07;6.40;;;1.67;;
54919;SDS011;63804;53.120;8.764;2022-10-16T15:56:33;8.88;;;1.98;;
54919;SDS011;63804;53.120;8.764;2022-10-16T15:58:59;9.45;;;1.73;;
54919;SDS011;63804;53.120;8.764;2022-10-16T16:01:25;9.05;;;1.92;;
54919;SDS011;63804;53.120;8.764;2022-10-16T16:03:54;7.60;;;1.98;;
54919;SDS011;63804;53.120;8.764;2022-10-16T16:06:21;7.00;;;1.90;;
54919;SDS011;63804;53.120;8.764;2022-10-16T16:08:49;8.15;;;2.10;;
54919;SDS011;63804;53.120;8.764;2022-10-16T16:11:16;11.32;;;2.10;;
54919;SDS011;63804;53.120;8.764;2022-10-16T16:13:42;8.18;;;1.85;;
54919;SDS011;63804;53.120;8.764;2022-10-16T16:16:09;9.05;;;2.10;;
54919;SDS011;63804;53.120;8.764;2022-10-16T16:18:40;7.95;;;2.10;;
54919;SDS011;63804;53.120;8.764;2022-10-16T16:21:06;12.13;;;2.92;;
54919;SDS011;63804;53.120;8.764;2022-10-16T16:23:32;7.80;;;2.20;;
54919;SDS011;63804;53.120;8.764;2022-10-16T16:26:09;5.75;;;2.13;;
54919;SDS011;63804;53.120;8.764;2022-10-16T16:28:37;10.88;;;2.35;;
54919;SDS011;63804;53.120;8.764;2022-10-16T16:31:04;9.82;;;2.80;;
54919;SDS011;63804;53.120;8.764;2022-10-16T16:33:30;12.02;;;3.08;;
54919;SDS011;63804;53.120;8.764;2022-10-16T16:35:57;12.25;;;2.65;;
54919;SDS011;63804;53.120;8.764;2022-10-16T16:38:24;8.77;;;2.15;;
54919;SDS011;63804;53.120;8.764;2022-10-16T16:40:49;5.28;;;2.30;;
54919;SDS011;63804;53.120;8.764;2022-10-16T16:43:17;9.15;;;2.15;;
54919;SDS011;63804;53.120;8.764;2022-10-16T16:45:43;7.82;;;2.10;;
54919;SDS011;63804;53.120;8.764;2022-10-16T16:48:09;10.30;;;2.28;;
54919;SDS011;63804;53.120;8.764;2022-10-16T16:50:35;6.75;;;2.40;;
54919;SDS011;63804;53.120;8.764;2022-10-16T16:53:11;7.78;;;2.20;;
54919;SDS011;63804;53.120;8.764;2022-10-16T16:55:44;10.38;;;3.33;;
54919;SDS011;63804;53.120;8.764;2022-10-16T16:58:09;11.30;;;3.45;;
54919;SDS011;63804;53.120;8.764;2022-10-16T17:00:35;10.40;;;3.17;;
54919;SDS011;63804;53.120;8.764;2022-10-16T17:03:00;9.63;;;3.67;;
54919;SDS011;63804;53.120;8.764;2022-10-16T17:05:26;14.75;;;5.25;;
54919;SDS011;63804;53.120;8.764;2022-10-16T17:07:52;15.10;;;5.50;;
54919;SDS011;63804;53.120;8.764;2022-10-16T17:10:17;14.80;;;5.30;;